Time;durP1;ratioP1;P1;durP2;ratioP2;P2;SDS_P1;SDS_P2;PMS_P1;PMS_P2;Temp;Humidity;BMP_temperature;BMP_pressure;BME280_temperature;BME280_humidity;BME280_pressure;Samples;Min_cycle;Max_cycle;Signal;HPM_P1;HPM_P2
2022/03/03 00:00:10;;;;;;;16.80;6.25;;;3.20;99.90;;;;;;5093233;28;20392;-75
2022/03/03 00:02:35;;;;;;;15.98;5.97;;;3.20;99.90;;;;;;5093749;28;20012;-75
2022/03/03 00:05:02;;;;;;;14.25;5.90;;;3.20;99.90;;;;;;5092064;28;20026;-74
2022/03/03 00:07:28;;;;;;;18.10;6.00;;;3.20;99.90;;;;;;5093231;28;20094;-74
2022/03/03 00:09:53;;;;;;;14.55;5.05;;;3.20;99.90;;;;;;5093932;28;20016;-74
2022/03/03 00:12:19;;;;;;;18.00;6.38;;;3.20;99.90;;;;;;5097359;28;20032;-74
2022/03/03 00:14:45;;;;;;;17.73;5.93;;;3.20;99.90;;;;;;5097646;28;20359;-74
2022/03/03 00:17:11;;;;;;;18.38;6.53;;;3.20;99.90;;;;;;5095770;28;20032;-74
2022/03/03 00:19:37;;;;;;;16.13;5.95;;;3.10;99.90;;;;;;5097196;28;20031;-75
2022/03/03 00:22:03;;;;;;;15.70;6.13;;;3.20;99.90;;;;;;5097414;28;20028;-75
2022/03/03 00:24:28;;;;;;;16.98;4.88;;;3.10;99.90;;;;;;5095786;28;20032;-74
2022/03/03 00:26:54;;;;;;;16.77;6.47;;;3.10;99.90;;;;;;5097528;28;20034;-74
2022/03/03 00:29:19;;;;;;;17.75;5.93;;;3.10;99.90;;;;;;5097012;28;20427;-74
2022/03/03 00:31:45;;;;;;;15.13;5.50;;;3.10;99.90;;;;;;5095702;28;20043;-74
2022/03/03 00:34:11;;;;;;;18.30;6.38;;;3.10;99.90;;;;;;5097143;28;20024;-74
2022/03/03 00:36:37;;;;;;;16.70;6.15;;;3.10;99.90;;;;;;5097147;28;20026;-75
2022/03/03 00:39:03;;;;;;;16.05;6.38;;;3.10;99.90;;;;;;5095594;28;20093;-74
2022/03/03 00:41:29;;;;;;;14.57;6.05;;;3.10;99.90;;;;;;5097043;28;20055;-74
2022/03/03 00:43:55;;;;;;;16.02;5.90;;;3.10;99.90;;;;;;5095453;28;20429;-74
2022/03/03 00:46:21;;;;;;;16.50;5.75;;;3.00;99.90;;;;;;5096681;28;20016;-74
2022/03/03 00:48:47;;;;;;;17.85;6.55;;;3.00;99.90;;;;;;5096581;28;20107;-74
2022/03/03 00:51:12;;;;;;;21.25;5.57;;;3.00;99.90;;;;;;5096573;28;20118;-74
2022/03/03 00:53:38;;;;;;;14.68;5.03;;;3.00;99.90;;;;;;5095566;28;20508;-75
2022/03/03 00:56:04;;;;;;;15.27;6.28;;;3.00;99.90;;;;;;5095185;28;20052;-74
2022/03/03 00:58:30;;;;;;;16.73;6.60;;;2.90;99.90;;;;;;5096679;28;20031;-74
2022/03/03 01:00:56;;;;;;;20.92;6.53;;;2.90;99.90;;;;;;5096407;28;20028;-74
2022/03/03 01:03:21;;;;;;;15.85;7.20;;;2.80;99.90;;;;;;5096501;28;20120;-75
2022/03/03 01:05:47;;;;;;;18.60;7.45;;;2.80;99.90;;;;;;5096727;28;20373;-74
2022/03/03 01:08:13;;;;;;;14.98;5.97;;;2.80;99.90;;;;;;5096316;28;20048;-74
2022/03/03 01:10:39;;;;;;;16.80;6.28;;;2.70;99.90;;;;;;5096515;28;20036;-74
2022/03/03 01:13:05;;;;;;;18.60;7.07;;;2.70;99.90;;;;;;5096808;28;20031;-74
2022/03/03 01:15:32;;;;;;;16.55;6.15;;;2.70;99.90;;;;;;5094826;28;20035;-74
2022/03/03 01:17:57;;;;;;;16.15;6.20;;;2.60;99.90;;;;;;5096091;28;20358;-74
2022/03/03 01:20:23;;;;;;;18.95;6.78;;;2.60;99.90;;;;;;5094730;28;20027;-74
2022/03/03 01:22:48;;;;;;;18.70;6.47;;;2.60;99.90;;;;;;5095874;28;20028;-75
2022/03/03 01:25:14;;;;;;;16.63;6.30;;;2.60;99.90;;;;;;5096169;28;20031;-74
2022/03/03 01:27:40;;;;;;;16.10;6.28;;;2.50;99.90;;;;;;5094579;28;20024;-74
2022/03/03 01:30:07;;;;;;;13.75;6.03;;;2.50;99.90;;;;;;5095907;28;20466;-74
2022/03/03 01:32:33;;;;;;;17.88;7.50;;;2.40;99.90;;;;;;5094597;28;20061;-74
2022/03/03 01:35:00;;;;;;;17.02;5.60;;;2.40;99.90;;;;;;5094458;28;20024;-74
2022/03/03 01:37:25;;;;;;;18.40;6.30;;;2.30;99.90;;;;;;5095758;28;20099;-74
2022/03/03 01:39:51;;;;;;;21.05;6.43;;;2.30;99.90;;;;;;5095755;28;20048;-74
2022/03/03 01:42:17;;;;;;;18.35;5.93;;;2.30;99.90;;;;;;5095592;28;20433;-74
2022/03/03 01:44:44;;;;;;;15.45;6.45;;;2.20;99.90;;;;;;5095497;28;20524;-74
2022/03/03 01:47:21;;;;;;;17.92;6.50;;;2.20;99.90;;;;;;5095775;28;20016;-72
2022/03/03 01:49:49;;;;;;;16.52;6.00;;;2.20;99.90;;;;;;5094199;28;20113;-72
2022/03/03 01:52:15;;;;;;;17.83;6.53;;;2.20;99.90;;;;;;5095455;28;20016;-72
2022/03/03 01:54:40;;;;;;;17.02;6.95;;;2.20;99.90;;;;;;5095104;28;20024;-72
2022/03/03 01:57:07;;;;;;;14.55;6.30;;;2.10;99.90;;;;;;5095059;28;20032;-72
2022/03/03 01:59:33;;;;;;;16.13;6.20;;;2.10;99.90;;;;;;5094941;28;20016;-72
2022/03/03 02:02:00;;;;;;;16.73;6.57;;;2.10;99.90;;;;;;5095339;28;20040;-72
2022/03/03 02:04:25;;;;;;;22.40;7.10;;;2.00;99.90;;;;;;5095135;28;20059;-72
2022/03/03 02:06:51;;;;;;;21.50;6.65;;;2.00;99.90;;;;;;5093852;28;20075;-72
2022/03/03 02:09:17;;;;;;;21.45;7.03;;;2.00;99.90;;;;;;5094854;28;20028;-72
2022/03/03 02:11:47;;;;;;;17.95;6.90;;;2.00;99.90;;;;;;5093385;28;20027;-73
2022/03/03 02:14:14;;;;;;;16.85;6.00;;;1.90;99.90;;;;;;5094832;28;20547;-73
2022/03/03 02:16:39;;;;;;;20.33;6.70;;;1.90;99.90;;;;;;5094880;28;20070;-72
2022/03/03 02:19:05;;;;;;;16.05;5.88;;;1.90;99.90;;;;;;5094650;28;20024;-72
2022/03/03 02:21:31;;;;;;;16.05;5.88;;;1.80;99.90;;;;;;5095153;28;20448;-72
2022/03/03 02:23:56;;;;;;;19.85;6.75;;;1.80;99.90;;;;;;5094865;28;20077;-72
2022/03/03 02:26:23;;;;;;;22.40;7.30;;;1.80;99.90;;;;;;5094753;28;20027;-73
2022/03/03 02:28:50;;;;;;;17.90;6.50;;;1.80;99.90;;;;;;5094603;28;20024;-72
2022/03/03 02:31:16;;;;;;;14.77;5.70;;;1.80;99.90;;;;;;5094731;28;20031;-73
2022/03/03 02:33:42;;;;;;;18.80;7.20;;;1.70;99.90;;;;;;5094171;28;20485;-72
2022/03/03 02:36:36;;;;;;;15.50;6.03;;;1.70;99.90;;;;;;5094520;28;20035;-72
2022/03/03 02:39:04;;;;;;;17.17;6.13;;;2.00;99.90;;;;;;5090318;28;20047;-72
2022/03/03 02:41:30;;;;;;;20.60;6.57;;;1.70;99.90;;;;;;5094289;28;20398;-72
2022/03/03 02:43:58;;;;;;;20.35;7.15;;;1.70;99.90;;;;;;5094236;28;20028;-72
2022/03/03 02:46:23;;;;;;;19.23;6.88;;;1.60;99.90;;;;;;5094125;28;20130;-72
2022/03/03 02:48:50;;;;;;;22.02;6.35;;;1.60;99.90;;;;;;5094087;28;20048;-72
2022/03/03 02:51:15;;;;;;;21.25;6.80;;;1.60;99.90;;;;;;5094030;28;20393;-72
2022/03/03 02:53:41;;;;;;;15.50;6.03;;;1.60;99.90;;;;;;5094259;28;20106;-73
2022/03/03 02:56:07;;;;;;;21.70;7.78;;;1.60;99.90;;;;;;5094010;28;20034;-72
2022/03/03 02:58:33;;;;;;;16.02;6.32;;;1.50;99.90;;;;;;5092838;28;20116;-72
2022/03/03 03:01:00;;;;;;;17.67;6.28;;;1.50;99.90;;;;;;5092298;28;20409;-72
2022/03/03 03:03:26;;;;;;;17.70;6.85;;;1.50;99.90;;;;;;5093890;28;20077;-72
2022/03/03 03:05:51;;;;;;;16.23;6.10;;;1.40;99.90;;;;;;5092616;28;20032;-73
2022/03/03 03:08:17;;;;;;;19.35;7.38;;;1.40;99.90;;;;;;5094042;28;20081;-72
2022/03/03 03:10:43;;;;;;;18.70;7.47;;;1.40;99.90;;;;;;5093897;28;20535;-72
2022/03/03 03:13:14;;;;;;;18.27;7.03;;;1.40;99.90;;;;;;5093987;28;20024;-72
2022/03/03 03:15:41;;;;;;;17.45;6.85;;;1.30;99.90;;;;;;5093837;28;20030;-72
2022/03/03 03:18:21;;;;;;;16.83;7.32;;;1.30;99.90;;;;;;5093546;28;20028;-72
2022/03/03 03:20:49;;;;;;;19.80;6.72;;;1.20;99.90;;;;;;5094032;28;20462;-73
2022/03/03 03:23:16;;;;;;;18.87;6.77;;;1.20;99.90;;;;;;5092479;28;20024;-72
2022/03/03 03:25:45;;;;;;;21.75;7.30;;;1.20;99.90;;;;;;5092243;28;20052;-72
2022/03/03 03:28:12;;;;;;;18.33;6.55;;;1.20;99.90;;;;;;5093576;28;20362;-72
2022/03/03 03:30:38;;;;;;;18.40;7.05;;;1.20;99.90;;;;;;5093454;28;20374;-72
2022/03/03 03:33:04;;;;;;;20.65;6.78;;;1.10;99.90;;;;;;5093411;28;20028;-72
2022/03/03 03:35:30;;;;;;;17.48;6.70;;;1.10;99.90;;;;;;5093680;28;20046;-72
2022/03/03 03:37:55;;;;;;;20.58;7.45;;;1.10;99.90;;;;;;5092567;28;20108;-73
2022/03/03 03:40:21;;;;;;;23.73;7.05;;;1.10;99.90;;;;;;5091695;28;20362;-72
2022/03/03 03:42:48;;;;;;;17.70;7.13;;;1.00;99.90;;;;;;5093240;28;20126;-73
2022/03/03 03:45:13;;;;;;;20.98;6.75;;;1.00;99.90;;;;;;5090880;28;20021;-72
2022/03/03 03:47:40;;;;;;;23.60;7.68;;;1.00;99.90;;;;;;5093455;28;20477;-72
2022/03/03 03:50:08;;;;;;;21.85;7.20;;;0.90;99.90;;;;;;5092015;28;20090;-73
2022/03/03 03:52:34;;;;;;;18.52;6.78;;;0.90;99.90;;;;;;5093465;28;20016;-72
2022/03/03 03:55:00;;;;;;;17.52;6.78;;;0.80;99.90;;;;;;5093552;28;20074;-73
2022/03/03 03:57:25;;;;;;;23.65;6.90;;;0.80;99.90;;;;;;5092015;28;20404;-72
2022/03/03 03:59:51;;;;;;;18.45;7.35;;;0.70;99.90;;;;;;5093222;28;20168;-73
2022/03/03 04:02:16;;;;;;;18.90;7.28;;;0.70;99.90;;;;;;5093126;28;20020;-72
2022/03/03 04:04:42;;;;;;;16.80;6.25;;;0.70;99.90;;;;;;5093089;28;20081;-72
2022/03/03 04:07:08;;;;;;;21.02;7.00;;;0.70;99.90;;;;;;5093269;28;20020;-72
2022/03/03 04:09:33;;;;;;;18.98;7.43;;;0.70;99.90;;;;;;5093821;28;20071;-72
2022/03/03 04:11:59;;;;;;;19.67;6.85;;;0.70;99.90;;;;;;5092174;28;20047;-72
2022/03/03 04:14:24;;;;;;;19.17;6.97;;;0.70;99.90;;;;;;5093670;28;20507;-73
2022/03/03 04:16:50;;;;;;;19.02;6.32;;;0.60;99.90;;;;;;5093494;28;20350;-73
2022/03/03 04:19:15;;;;;;;19.70;7.25;;;0.60;99.90;;;;;;5092452;28;20107;-72
2022/03/03 04:21:41;;;;;;;16.00;6.40;;;0.60;99.90;;;;;;5093542;28;20031;-72
2022/03/03 04:24:07;;;;;;;17.02;6.93;;;0.60;99.90;;;;;;5093118;28;20389;-72
2022/03/03 04:26:34;;;;;;;17.55;6.22;;;0.50;99.90;;;;;;5093271;28;20024;-72
2022/03/03 04:29:00;;;;;;;15.00;6.43;;;0.50;99.90;;;;;;5093626;28;20100;-72
2022/03/03 04:31:25;;;;;;;16.20;6.55;;;0.50;99.90;;;;;;5093252;28;20074;-73
2022/03/03 04:33:51;;;;;;;16.95;6.50;;;0.50;99.90;;;;;;5093452;28;20028;-73
2022/03/03 04:36:17;;;;;;;16.85;6.57;;;0.40;99.90;;;;;;5093081;28;20020;-73
2022/03/03 04:38:45;;;;;;;16.95;6.50;;;0.30;99.90;;;;;;5093538;28;20089;-72
2022/03/03 04:41:10;;;;;;;21.23;7.53;;;0.30;99.90;;;;;;5093095;28;20050;-72
2022/03/03 04:43:36;;;;;;;18.42;6.47;;;0.30;99.90;;;;;;5093538;28;20067;-72
2022/03/03 04:46:01;;;;;;;16.67;5.90;;;0.20;99.90;;;;;;5092743;28;20542;-72
2022/03/03 04:48:29;;;;;;;19.63;6.50;;;0.20;99.90;;;;;;5093019;28;20024;-72
2022/03/03 04:50:59;;;;;;;15.77;6.03;;;0.10;99.90;;;;;;5091669;28;20474;-72
2022/03/03 04:53:25;;;;;;;19.25;7.72;;;0.10;99.90;;;;;;5093186;28;20342;-73
2022/03/03 04:55:51;;;;;;;20.95;6.78;;;0.10;99.90;;;;;;5093304;28;20024;-73
2022/03/03 04:58:17;;;;;;;18.90;6.93;;;0.00;99.90;;;;;;5096568;28;20549;-72
2022/03/03 05:00:43;;;;;;;21.92;7.40;;;0.00;99.90;;;;;;5095216;28;20462;-71
2022/03/03 05:03:08;;;;;;;18.70;6.85;;;0.00;99.90;;;;;;5095892;28;20485;-72
2022/03/03 05:05:34;;;;;;;18.83;7.18;;;0.00;99.90;;;;;;5094735;28;20478;-71
2022/03/03 05:07:59;;;;;;;18.42;6.55;;;-0.10;99.90;;;;;;5096496;28;20020;-72
2022/03/03 05:10:25;;;;;;;23.80;7.68;;;-0.10;99.90;;;;;;5094846;28;20048;-73
2022/03/03 05:12:50;;;;;;;22.52;6.00;;;-0.10;99.90;;;;;;5095673;28;20070;-72
2022/03/03 05:15:16;;;;;;;18.42;6.90;;;-0.10;99.90;;;;;;5096266;28;20078;-72
2022/03/03 05:17:42;;;;;;;19.20;6.53;;;-0.20;99.90;;;;;;5095768;28;20446;-72
2022/03/03 05:20:08;;;;;;;16.95;6.38;;;-0.20;99.90;;;;;;5095845;28;20389;-72
2022/03/03 05:22:34;;;;;;;20.05;6.72;;;-0.20;99.90;;;;;;5095406;28;20024;-72
2022/03/03 05:24:59;;;;;;;17.55;6.55;;;-0.30;99.90;;;;;;5095684;28;20031;-72
2022/03/03 05:27:25;;;;;;;18.23;7.07;;;-0.30;99.90;;;;;;5095927;28;20017;-72
2022/03/03 05:29:51;;;;;;;20.35;7.15;;;-0.30;99.90;;;;;;5095730;28;20056;-72
2022/03/03 05:32:17;;;;;;;22.90;7.38;;;-0.20;99.90;;;;;;5095901;28;20019;-72
2022/03/03 05:34:42;;;;;;;18.45;7.05;;;-0.30;99.90;;;;;;5096108;28;20024;-72
2022/03/03 05:37:08;;;;;;;22.98;7.18;;;-0.30;99.90;;;;;;5095747;28;20040;-72
2022/03/03 05:39:35;;;;;;;21.42;7.80;;;-0.30;99.90;;;;;;5094302;28;20032;-71
2022/03/03 05:42:00;;;;;;;17.35;6.43;;;-0.30;99.90;;;;;;5095672;28;20034;-71
2022/03/03 05:44:28;;;;;;;23.08;7.72;;;-0.30;99.90;;;;;;5095627;28;20028;-72
2022/03/03 05:46:55;;;;;;;20.05;6.88;;;-0.40;99.90;;;;;;5095927;28;20024;-72
2022/03/03 05:49:22;;;;;;;17.63;6.53;;;-0.30;99.90;;;;;;5095767;28;20031;-74
2022/03/03 05:51:48;;;;;;;18.80;6.95;;;-0.40;99.90;;;;;;5095361;28;20379;-72
2022/03/03 05:54:14;;;;;;;22.35;7.40;;;-0.40;99.90;;;;;;5095369;28;20024;-72
2022/03/03 05:56:45;;;;;;;19.63;7.40;;;-0.40;99.90;;;;;;5094152;28;20049;-72
2022/03/03 05:59:14;;;;;;;17.13;5.97;;;-0.40;99.90;;;;;;5095148;28;20154;-72
2022/03/03 06:01:40;;;;;;;;;;;-0.40;99.90;;;;;;5094218;28;20012;-72
2022/03/03 06:04:07;;;;;;;26.00;6.70;;;-0.40;99.90;;;;;;5095278;28;20307;-72
2022/03/03 06:06:39;;;;;;;17.90;7.10;;;-0.40;99.90;;;;;;5094819;28;20077;-73
2022/03/03 06:09:15;;;;;;;18.15;7.25;;;-0.40;99.90;;;;;;5094975;28;20020;-72
2022/03/03 06:11:47;;;;;;;17.13;6.07;;;-0.40;99.90;;;;;;5095296;28;20035;-72
2022/03/03 06:14:16;;;;;;;18.20;7.43;;;-0.40;99.90;;;;;;5094938;28;20036;-73
2022/03/03 06:16:42;;;;;;;17.65;7.03;;;-0.40;99.90;;;;;;5093734;28;20199;-72
2022/03/03 06:19:09;;;;;;;23.30;7.85;;;-0.40;99.90;;;;;;5095079;28;20036;-72
2022/03/03 06:21:34;;;;;;;19.63;6.95;;;-0.40;99.90;;;;;;5093812;28;20064;-72
2022/03/03 06:24:00;;;;;;;18.95;6.82;;;-0.40;99.90;;;;;;5094627;28;20059;-73
2022/03/03 06:26:25;;;;;;;19.85;7.07;;;-0.40;99.90;;;;;;5094740;28;20520;-72
2022/03/03 06:28:51;;;;;;;17.80;7.25;;;-0.40;99.90;;;;;;5094681;28;20100;-71
2022/03/03 06:31:17;;;;;;;20.35;7.25;;;-0.40;99.90;;;;;;5094674;28;20027;-72
2022/03/03 06:33:43;;;;;;;21.27;7.15;;;-0.40;99.90;;;;;;5094562;28;20449;-73
2022/03/03 06:36:09;;;;;;;19.23;6.75;;;-0.40;99.90;;;;;;5094640;28;20040;-72
2022/03/03 06:38:34;;;;;;;21.25;7.80;;;-0.40;99.90;;;;;;5093257;28;20035;-73
2022/03/03 06:41:02;;;;;;;16.98;7.35;;;-0.30;99.90;;;;;;5093374;28;20024;-73
2022/03/03 06:43:29;;;;;;;18.53;7.03;;;-0.30;99.90;;;;;;5094196;28;20090;-73
2022/03/03 06:45:56;;;;;;;21.05;7.70;;;-0.20;99.90;;;;;;5094068;28;20020;-73
2022/03/03 06:48:22;;;;;;;19.52;7.28;;;-0.20;99.90;;;;;;5094906;28;20465;-74
2022/03/03 06:50:54;;;;;;;20.02;6.60;;;-0.20;99.90;;;;;;5094213;28;20023;-73
2022/03/03 06:53:30;;;;;;;19.77;7.22;;;-0.20;99.90;;;;;;5094316;28;20024;-72
2022/03/03 06:56:09;;;;;;;23.05;7.47;;;-0.20;99.90;;;;;;5094323;28;20111;-72
2022/03/03 06:58:36;;;;;;;20.80;6.72;;;-0.20;99.90;;;;;;5093992;28;20046;-71
2022/03/03 07:01:05;;;;;;;20.20;7.00;;;-0.20;99.90;;;;;;5094355;28;20095;-72
2022/03/03 07:03:31;;;;;;;;;;;-0.10;99.90;;;;;;5094337;28;20024;-72
2022/03/03 07:06:00;;;;;;;18.42;6.40;;;0.00;99.90;;;;;;5093082;28;19904;-72
2022/03/03 07:08:26;;;;;;;;;;;0.10;99.90;;;;;;5093866;28;20031;-72
2022/03/03 07:10:51;;;;;;;18.02;6.20;;;0.10;99.90;;;;;;5094287;28;20357;-72
2022/03/03 07:13:17;;;;;;;21.10;7.85;;;0.20;99.90;;;;;;5094004;28;20063;-72
2022/03/03 07:15:52;;;;;;;23.88;8.07;;;2.30;99.90;;;;;;5094123;28;20039;-73
2022/03/03 07:18:29;;;;;;;22.00;7.32;;;0.40;99.90;;;;;;5092611;28;20547;-73
2022/03/03 07:21:24;;;;;;;19.10;7.22;;;0.40;99.90;;;;;;5092699;28;20111;-72
2022/03/03 07:24:03;;;;;;;20.52;7.63;;;0.60;99.90;;;;;;5089213;28;20105;-73
2022/03/03 07:26:30;;;;;;;19.95;6.63;;;0.70;99.90;;;;;;5094031;28;20021;-73
2022/03/03 07:29:00;;;;;;;30.95;7.65;;;0.80;99.90;;;;;;5092470;28;20020;-72
2022/03/03 07:31:28;;;;;;;21.40;7.43;;;0.90;99.90;;;;;;5093499;28;20020;-72
2022/03/03 07:33:58;;;;;;;19.30;7.05;;;1.00;99.90;;;;;;5093752;28;20020;-72
2022/03/03 07:36:26;;;;;;;18.15;7.65;;;1.10;99.90;;;;;;5093819;28;20028;-72
2022/03/03 07:38:59;;;;;;;18.48;7.82;;;1.30;99.90;;;;;;5092230;28;20027;-72
2022/03/03 07:41:26;;;;;;;16.70;7.20;;;1.40;99.90;;;;;;5092567;28;20463;-72
2022/03/03 07:43:53;;;;;;;25.00;7.85;;;1.50;99.90;;;;;;5093591;28;20023;-71
2022/03/03 07:46:19;;;;;;;17.60;7.63;;;1.60;99.90;;;;;;5093216;28;20046;-72
2022/03/03 07:48:46;;;;;;;22.00;7.00;;;1.70;99.90;;;;;;5093465;28;20099;-73
2022/03/03 07:51:12;;;;;;;23.00;8.07;;;1.80;99.90;;;;;;5093494;28;20020;-73
2022/03/03 07:53:38;;;;;;;15.80;6.57;;;1.90;99.90;;;;;;5093589;28;20386;-73
2022/03/03 07:56:05;;;;;;;16.88;6.65;;;2.00;99.90;;;;;;5093456;28;20028;-73
2022/03/03 07:58:42;;;;;;;15.98;6.63;;;2.20;99.90;;;;;;5092520;28;20024;-72
2022/03/03 08:01:09;;;;;;;19.50;7.22;;;2.30;99.90;;;;;;5093394;28;20028;-73
2022/03/03 08:03:37;;;;;;;17.52;7.40;;;2.50;99.90;;;;;;5093359;28;20121;-72
2022/03/03 08:06:03;;;;;;;21.20;7.82;;;2.60;99.90;;;;;;5093449;28;20524;-72
2022/03/03 08:08:30;;;;;;;19.40;7.05;;;2.80;99.90;;;;;;5093465;28;20169;-73
2022/03/03 08:11:04;;;;;;;19.05;7.57;;;2.90;99.90;;;;;;5093838;28;20024;-72
2022/03/03 08:13:31;;;;;;;18.75;6.78;;;3.10;99.90;;;;;;5091997;28;20097;-73
2022/03/03 08:15:57;;;;;;;15.63;6.97;;;3.20;99.90;;;;;;5093847;28;20380;-73
2022/03/03 08:18:29;;;;;;;16.60;6.32;;;3.40;99.90;;;;;;5092177;28;20056;-72
2022/03/03 08:20:55;;;;;;;19.27;6.30;;;3.60;99.90;;;;;;5093356;28;20032;-73
2022/03/03 08:23:25;;;;;;;18.08;7.43;;;3.80;99.90;;;;;;5093446;28;20028;-73
2022/03/03 08:25:52;;;;;;;15.52;6.03;;;3.90;99.90;;;;;;5093220;28;20085;-73
2022/03/03 08:28:20;;;;;;;16.40;6.97;;;4.00;99.90;;;;;;5093581;28;20022;-72
2022/03/03 08:30:48;;;;;;;12.00;5.88;;;4.20;99.90;;;;;;5094909;28;20031;-73
2022/03/03 08:33:20;;;;;;;12.80;6.15;;;4.40;99.00;;;;;;5097292;28;20377;-72
2022/03/03 08:35:54;;;;;;;15.70;5.47;;;4.50;98.00;;;;;;5097231;28;20026;-72
2022/03/03 08:38:46;;;;;;;14.15;6.00;;;4.70;96.60;;;;;;5096984;28;20085;-73
2022/03/03 08:41:15;;;;;;;14.85;6.07;;;4.90;94.40;;;;;;5076583;28;20050;-73
2022/03/03 08:43:42;;;;;;;15.18;5.50;;;4.90;92.90;;;;;;5075282;28;20028;-73
2022/03/03 08:46:09;;;;;;;13.57;5.60;;;5.20;91.20;;;;;;5076447;28;20013;-73
2022/03/03 08:48:35;;;;;;;14.27;6.00;;;5.40;90.60;;;;;;5076871;28;20017;-73
2022/03/03 08:51:02;;;;;;;15.32;5.53;;;5.50;87.90;;;;;;5096728;28;20065;-72
2022/03/03 08:53:28;;;;;;;14.60;5.43;;;5.60;88.20;;;;;;5097037;28;20020;-74
2022/03/03 08:55:54;;;;;;;12.15;4.97;;;5.80;83.10;;;;;;5096897;28;20020;-73
2022/03/03 08:58:21;;;;;;;12.52;4.57;;;5.90;82.00;;;;;;5096464;28;20393;-72
2022/03/03 09:00:48;;;;;;;12.13;5.15;;;6.10;80.20;;;;;;5095185;28;20016;-72
2022/03/03 09:03:15;;;;;;;12.32;5.38;;;6.20;79.30;;;;;;5095079;28;20032;-72
2022/03/03 09:05:41;;;;;;;12.35;5.22;;;6.30;78.50;;;;;;5096319;28;20054;-72
2022/03/03 09:08:07;;;;;;;12.63;5.68;;;6.40;77.80;;;;;;5096614;28;20073;-73
2022/03/03 09:10:33;;;;;;;14.75;5.88;;;6.60;74.20;;;;;;5096224;28;20359;-73
2022/03/03 09:13:00;;;;;;;14.57;6.00;;;6.80;72.80;;;;;;5096061;28;20523;-72
2022/03/03 09:15:30;;;;;;;12.23;5.53;;;6.80;73.40;;;;;;5094944;28;20107;-72
2022/03/03 09:17:56;;;;;;;16.45;5.47;;;7.00;71.00;;;;;;5094777;28;20060;-72
2022/03/03 09:20:21;;;;;;;12.05;5.93;;;7.10;68.20;;;;;;5096073;28;20051;-72
2022/03/03 09:22:47;;;;;;;15.18;5.32;;;7.20;67.60;;;;;;5096137;28;20031;-72
2022/03/03 09:25:12;;;;;;;11.55;5.20;;;7.30;66.90;;;;;;5096023;28;20086;-72
2022/03/03 09:27:39;;;;;;;20.70;5.95;;;7.40;66.00;;;;;;5095823;28;20019;-73
2022/03/03 09:30:06;;;;;;;13.50;5.45;;;7.50;66.00;;;;;;5095756;28;20024;-72
2022/03/03 09:32:32;;;;;;;10.85;4.88;;;7.60;64.10;;;;;;5095871;28;20035;-72
2022/03/03 09:34:57;;;;;;;14.65;5.20;;;7.70;64.20;;;;;;5095387;28;20020;-73
2022/03/03 09:37:23;;;;;;;13.18;5.55;;;7.80;64.20;;;;;;5095481;28;20039;-72
2022/03/03 09:39:50;;;;;;;13.35;5.55;;;8.90;64.00;;;;;;5095368;28;20119;-74
2022/03/03 09:42:17;;;;;;;11.68;4.93;;;8.00;62.50;;;;;;5094390;28;20035;-72
2022/03/03 09:44:42;;;;;;;11.55;4.97;;;8.10;60.00;;;;;;5094358;28;20030;-72
2022/03/03 09:47:11;;;;;;;13.50;5.43;;;8.30;61.20;;;;;;5094198;28;20024;-72
2022/03/03 09:49:37;;;;;;;15.57;5.55;;;8.30;60.10;;;;;;5095629;28;20016;-72
2022/03/03 09:52:14;;;;;;;11.68;4.95;;;8.50;60.40;;;;;;5095550;28;20020;-72
2022/03/03 09:54:42;;;;;;;10.10;4.70;;;8.60;59.50;;;;;;5095417;28;20077;-73
2022/03/03 09:57:08;;;;;;;10.63;4.93;;;8.70;58.60;;;;;;5095299;28;20020;-72
2022/03/03 09:59:33;;;;;;;13.68;4.70;;;8.80;59.00;;;;;;5095583;28;20024;-73
2022/03/03 10:02:04;;;;;;;13.40;4.82;;;9.00;57.50;;;;;;5093983;28;20374;-73
2022/03/03 10:04:29;;;;;;;10.57;4.82;;;9.00;56.20;;;;;;5095212;28;20060;-73
2022/03/03 10:06:55;;;;;;;12.23;4.80;;;9.10;56.70;;;;;;5094158;28;20044;-76
2022/03/03 10:09:21;;;;;;;9.93;3.83;;;9.20;55.40;;;;;;5093866;28;20020;-76
2022/03/03 10:12:02;;;;;;;10.43;3.97;;;9.30;52.40;;;;;;5094788;28;20468;-76
2022/03/03 10:14:38;;;;;;;10.38;4.57;;;9.40;53.20;;;;;;5095132;28;20020;-76
2022/03/03 10:17:05;;;;;;;11.05;4.28;;;9.50;52.40;;;;;;5095449;28;20043;-77
2022/03/03 10:19:32;;;;;;;11.32;4.05;;;9.70;52.40;;;;;;5094737;28;20038;-75
2022/03/03 10:21:57;;;;;;;8.63;3.80;;;9.70;52.50;;;;;;5094986;28;20026;-76
2022/03/03 10:24:28;;;;;;;7.95;3.60;;;9.80;51.60;;;;;;5094620;28;20032;-76
2022/03/03 10:27:02;;;;;;;8.25;4.25;;;9.90;51.90;;;;;;5094031;28;20020;-76
2022/03/03 10:29:29;;;;;;;14.50;3.88;;;9.90;51.70;;;;;;5094531;28;20067;-75
2022/03/03 10:31:56;;;;;;;8.30;3.50;;;10.00;51.00;;;;;;5095489;28;20552;-77
2022/03/03 10:34:27;;;;;;;10.20;3.90;;;10.10;50.30;;;;;;5095023;28;20028;-76
2022/03/03 10:37:00;;;;;;;8.23;3.20;;;10.10;50.80;;;;;;5095132;28;20103;-77
2022/03/03 10:39:37;;;;;;;12.23;5.03;;;10.20;50.70;;;;;;5094653;28;20451;-76
2022/03/03 10:42:19;;;;;;;7.53;3.63;;;10.30;50.10;;;;;;5092948;28;20032;-76
2022/03/03 10:44:45;;;;;;;10.05;4.25;;;10.30;50.50;;;;;;5094800;28;20028;-76
2022/03/03 10:47:20;;;;;;;9.70;3.78;;;10.40;50.70;;;;;;5093921;28;20020;-76
2022/03/03 10:49:47;;;;;;;7.63;4.00;;;10.50;49.40;;;;;;5095177;28;20103;-76
2022/03/03 10:52:21;;;;;;;12.75;4.82;;;10.60;49.30;;;;;;5094491;28;20016;-76
2022/03/03 10:54:54;;;;;;;10.07;3.67;;;10.60;50.00;;;;;;5094587;28;20091;-76
2022/03/03 10:57:28;;;;;;;8.57;4.20;;;10.70;49.90;;;;;;5092496;28;20489;-76
2022/03/03 10:59:57;;;;;;;9.82;4.20;;;10.80;49.50;;;;;;5094246;28;20039;-76
2022/03/03 11:02:25;;;;;;;11.07;4.30;;;11.00;50.10;;;;;;5094170;28;20031;-76
2022/03/03 11:04:50;;;;;;;12.70;4.20;;;11.00;49.50;;;;;;5094275;28;20465;-76
2022/03/03 11:07:18;;;;;;;9.70;3.72;;;11.10;49.00;;;;;;5092460;28;20099;-77
2022/03/03 11:09:44;;;;;;;8.20;3.63;;;11.20;49.10;;;;;;5093543;28;20012;-74
2022/03/03 11:12:10;;;;;;;10.05;4.55;;;11.30;48.90;;;;;;5092069;28;20065;-74
2022/03/03 11:14:37;;;;;;;7.63;3.63;;;11.30;48.50;;;;;;5094149;28;20539;-76
2022/03/03 11:17:03;;;;;;;11.00;4.40;;;11.40;48.60;;;;;;5093931;28;20024;-74
2022/03/03 11:19:30;;;;;;;10.60;4.55;;;11.50;48.40;;;;;;5094263;28;20161;-75
2022/03/03 11:21:55;;;;;;;9.75;4.97;;;11.60;48.50;;;;;;5094357;28;20028;-75
2022/03/03 11:24:22;;;;;;;9.43;4.57;;;11.60;47.70;;;;;;5092624;28;20031;-73
2022/03/03 11:26:48;;;;;;;9.50;4.47;;;11.70;48.10;;;;;;5093811;28;20480;-74
2022/03/03 11:29:15;;;;;;;9.35;4.18;;;11.80;47.70;;;;;;5094226;28;20523;-75
2022/03/03 11:31:58;;;;;;;10.15;3.95;;;11.90;48.00;;;;;;5093990;28;20044;-74
2022/03/03 11:34:32;;;;;;;8.27;4.00;;;12.00;47.40;;;;;;5094191;28;20031;-74
2022/03/03 11:37:07;;;;;;;10.95;4.47;;;12.20;47.00;;;;;;5093780;28;20082;-73
2022/03/03 11:39:42;;;;;;;8.60;4.18;;;12.30;46.80;;;;;;5093691;28;20019;-74
2022/03/03 11:42:34;;;;;;;7.13;3.65;;;12.40;45.90;;;;;;5093827;28;20027;-74
2022/03/03 11:45:03;;;;;;;8.27;4.38;;;12.50;45.10;;;;;;5084468;28;20121;-74
2022/03/03 11:47:32;;;;;;;8.05;3.97;;;12.60;44.80;;;;;;5094252;28;20097;-74
2022/03/03 11:50:08;;;;;;;9.75;4.18;;;12.70;45.20;;;;;;5093552;28;20016;-73
2022/03/03 11:52:38;;;;;;;8.38;3.65;;;12.80;44.30;;;;;;5092709;28;20024;-74
2022/03/03 11:55:27;;;;;;;7.03;3.42;;;13.00;45.00;;;;;;5093576;28;20085;-74
2022/03/03 11:58:14;;;;;;;10.98;3.72;;;13.10;43.80;;;;;;5093862;28;20047;-74
2022/03/03 12:01:08;;;;;;;9.10;3.90;;;13.30;43.60;;;;;;5092943;28;20059;-75
2022/03/03 12:03:57;;;;;;;11.73;4.15;;;13.40;43.60;;;;;;5090727;28;20040;-74
2022/03/03 12:06:38;;;;;;;10.90;4.00;;;13.50;42.10;;;;;;5096518;28;20012;-74
2022/03/03 12:09:26;;;;;;;8.30;3.78;;;13.70;43.00;;;;;;5098101;28;20481;-74
2022/03/03 12:12:08;;;;;;;7.78;3.42;;;13.80;42.40;;;;;;5096269;28;20370;-75
2022/03/03 12:14:58;;;;;;;7.57;4.00;;;14.00;40.10;;;;;;5097866;28;20046;-74
2022/03/03 12:17:43;;;;;;;6.72;3.25;;;14.10;39.90;;;;;;5097682;28;20043;-75
2022/03/03 12:20:24;;;;;;;5.88;2.88;;;14.20;40.90;;;;;;5097910;28;20031;-74
2022/03/03 12:23:11;;;;;;;7.55;3.35;;;14.30;40.10;;;;;;5097232;28;20485;-74
2022/03/03 12:25:50;;;;;;;6.63;3.17;;;14.40;40.70;;;;;;5097155;28;20441;-74
2022/03/03 12:28:26;;;;;;;7.25;3.30;;;14.50;40.30;;;;;;5097336;28;20483;-73
2022/03/03 12:30:53;;;;;;;9.18;3.72;;;14.60;39.00;;;;;;5097795;28;20023;-74
2022/03/03 12:33:30;;;;;;;7.20;3.75;;;14.70;38.30;;;;;;5097288;28;20064;-74
2022/03/03 12:36:05;;;;;;;7.30;4.05;;;14.70;38.20;;;;;;5097862;28;20549;-74
2022/03/03 12:38:33;;;;;;;6.40;3.15;;;14.70;37.90;;;;;;5095944;28;20027;-74
2022/03/03 12:40:59;;;;;;;8.52;3.28;;;14.60;38.20;;;;;;5096992;28;20028;-73
2022/03/03 12:43:24;;;;;;;8.48;3.30;;;14.70;38.70;;;;;;5096987;28;20032;-75
2022/03/03 12:45:50;;;;;;;5.85;2.92;;;14.80;38.80;;;;;;5096722;28;20035;-75
2022/03/03 12:48:28;;;;;;;6.25;3.40;;;14.90;38.80;;;;;;5097167;28;20016;-74
2022/03/03 12:51:00;;;;;;;10.27;3.80;;;15.00;38.10;;;;;;5097510;28;20020;-75